Terminal Aerodrome Forecast
Issued by NWS

Home | Current Version | Previous Version | Text Only | Print | Product List | Glossary Off
Versions: 1 2 3 4 5 6 7 8 9 10 11 12 13 14 15 16 17

000
FTUS43 KGRB 260934 AAA
TAFCWA
TAF AMD
KCWA 260934Z 2610/2706 09004KT P6SM VCSH BKN060 BKN100
      TEMPO 2610/2612 4SM -SHRA BR BKN045
     FM261400 15006KT P6SM BKN060
     FM262100 18007KT P6SM VCSH OVC050
     FM270300 17004KT P6SM BKN030=

USA.gov is the U.S. government's official web portal to all federal, state and local government web resources and services.